KPWK/PWK METAR and TAF weather

Enter ICAO airport designator
Station Type Date Time Source
KPWK METAR 2020/04/03 22:52 UTC NOAA

KPWK 032252Z 08006KT 10SM OVC065 16/04 A3000 RMK AO2 SLP159 T01610039


Station Type Date Time Source
KPWK Decoded METAR 2020/04/03 22:52 UTC NOAA

CHICAGO EXECUTIVE AIRPORT, IL, United States (KPWK) 42-07N 087-54W 203M
Apr 03, 2020 - 06:52 PM EDT / 2020.04.03 2252 UTC
Wind: from the E (080 degrees) at 7 MPH (6 KT):0
Visibility: 10 mile(s):0
Sky conditions: overcast
Temperature: 61.0 F (16.1 C)
Dew Point: 39.0 F (3.9 C)
Relative Humidity: 44%
Pressure (altimeter): 30 in. Hg (1015 hPa)
ob: KPWK 032252Z 08006KT 10SM OVC065 16/04 A3000 RMK AO2 SLP159 T01610039
cycle: 23

Station Type Date Time Source
KPWK TAF UTC NOAA

Error!

Example: see airport list